Terminal Aerodrome Forecast
Issued by NWS

Home | Current Version | Previous Version | Text Only | Print | Product List | Glossary On
Versions: 1 2 3 4 5 6 7 8 9 10 11 12 13 14 15 16 17 18
888
FTUS46 KLOX 250531
TAFVNY
TAF
KVNY 250531Z 2506/2606 VRB03KT P6SM BKN150
     FM250800 VRB03KT P6SM VCSH BKN060
     FM251300 VRB03KT P6SM VCSH BKN050
     FM251700 VRB03KT P6SM BKN025 BKN050
     FM252100 16007KT P6SM SCT030 BKN050=

USA.gov is the U.S. government's official web portal to all federal, state and local government web resources and services.